Terminal Aerodrome Forecast
Issued by NWS

Home | Current Version | Previous Version | Graphics & Text | Print | Product List | Glossary On
Versions: 1 2 3 4 5 6 7 8 9 10 11 12 13 14 15
000
FTUS43 KABR 250923 AAB
TAFMBG
TAF AMD
KMBG 250923Z 2509/2606 05006KT P6SM FEW016 SCT025 OVC060
      TEMPO 2509/2513 -RA FEW008 BKN016 OVC025
     FM251300 01008KT P6SM -RA OVC015
     FM251800 36009KT P6SM SCT025 BKN040 BKN120=

USA.gov is the U.S. government's official web portal to all federal, state and local government web resources and services.